Time;durP1;ratioP1;P1;durP2;ratioP2;P2;SDS_P1;SDS_P2;PMS_P1;PMS_P2;Temp;Humidity;BMP_temperature;BMP_pressure;BME280_temperature;BME280_humidity;BME280_pressure;Samples;Min_cycle;Max_cycle;Signal;HPM_P1;HPM_P2
2022/12/18 00:01:18;;;;;;;5.53;2.63;;;21.80;99.90;;;;;;4996583;28;20420;-50
2022/12/18 00:03:44;;;;;;;5.50;3.10;;;21.80;99.90;;;;;;4994468;28;20022;-50
2022/12/18 00:06:11;;;;;;;7.47;3.25;;;21.70;99.90;;;;;;4994761;28;20412;-49
2022/12/18 00:08:37;;;;;;;6.95;2.83;;;21.80;99.90;;;;;;4993196;28;20117;-49
2022/12/18 00:11:07;;;;;;;4.30;2.90;;;21.70;99.90;;;;;;4994402;28;20109;-49
2022/12/18 00:13:33;;;;;;;4.40;3.28;;;21.70;99.90;;;;;;5005087;28;20033;-50
2022/12/18 00:16:05;;;;;;;6.00;3.40;;;21.70;99.90;;;;;;5013441;28;20025;-49
2022/12/18 00:18:31;;;;;;;6.65;3.58;;;21.70;99.90;;;;;;5014536;28;20022;-51
2022/12/18 00:21:01;;;;;;;5.15;2.65;;;21.70;99.90;;;;;;5011017;28;20100;-48
2022/12/18 00:23:29;;;;;;;53.75;10.63;;;21.70;99.90;;;;;;5004567;28;20100;-48
2022/12/18 00:25:55;;;;;;;31.50;8.15;;;21.70;99.90;;;;;;5014204;28;20025;-48
2022/12/18 00:28:20;;;;;;;23.60;6.93;;;21.70;99.90;;;;;;5005094;28;20118;-51
2022/12/18 00:30:46;;;;;;;19.13;5.38;;;21.60;99.90;;;;;;4992474;28;20030;-52
2022/12/18 00:33:12;;;;;;;14.90;5.00;;;21.70;99.90;;;;;;4994307;28;20030;-52
2022/12/18 00:35:38;;;;;;;13.85;5.25;;;21.70;99.90;;;;;;4994202;28;20037;-51
2022/12/18 00:38:06;;;;;;;14.63;4.38;;;21.70;99.90;;;;;;4993699;28;20018;-51
2022/12/18 00:40:31;;;;;;;;;;;21.80;99.90;;;;;;4994511;28;20092;-51
2022/12/18 00:42:57;;;;;;;12.07;4.60;;;21.80;99.90;;;;;;4994005;28;19913;-54
2022/12/18 00:45:25;;;;;;;12.85;4.50;;;21.80;99.90;;;;;;4993637;28;20026;-53
2022/12/18 00:47:51;;;;;;;11.40;4.40;;;21.80;99.90;;;;;;4993781;28;20023;-57
2022/12/18 00:50:17;;;;;;;9.77;3.90;;;21.80;99.90;;;;;;4993886;28;20022;-57
2022/12/18 00:52:43;;;;;;;10.27;4.18;;;21.80;99.90;;;;;;4993564;28;20461;-57
2022/12/18 00:55:10;;;;;;;10.88;4.30;;;21.90;99.90;;;;;;4976573;28;20030;-57
2022/12/18 00:57:36;;;;;;;10.07;4.75;;;21.90;99.90;;;;;;4993978;28;20030;-49
2022/12/18 01:00:03;;;;;;;9.77;4.15;;;21.90;99.90;;;;;;5032735;22;20103;-55
2022/12/18 01:02:28;;;;;;;13.48;3.97;;;21.90;99.90;;;;;;5033213;28;20036;-55
2022/12/18 01:04:54;;;;;;;13.75;4.65;;;21.90;99.90;;;;;;5033390;28;20025;-57
2022/12/18 01:07:20;;;;;;;10.55;3.60;;;21.90;99.90;;;;;;5014976;28;20026;-55
2022/12/18 01:09:46;;;;;;;7.10;4.13;;;21.90;99.90;;;;;;5033158;28;20029;-54
2022/12/18 01:12:11;;;;;;;8.23;3.80;;;21.90;99.90;;;;;;5033475;28;20032;-57
2022/12/18 01:14:38;;;;;;;11.20;4.20;;;21.90;99.90;;;;;;5032999;28;20499;-54
2022/12/18 01:17:04;;;;;;;17.50;4.80;;;21.90;99.90;;;;;;5032698;28;20022;-61
2022/12/18 01:19:29;;;;;;;12.23;4.13;;;21.90;99.90;;;;;;5032899;28;20061;-62
2022/12/18 01:21:55;;;;;;;6.82;3.50;;;21.80;99.90;;;;;;5015224;28;20057;-62
2022/12/18 01:24:21;;;;;;;10.90;4.00;;;21.90;99.90;;;;;;5032549;28;20017;-51
2022/12/18 01:26:47;;;;;;;11.52;3.83;;;21.80;99.90;;;;;;5014349;28;20168;-53
2022/12/18 01:29:13;;;;;;;11.20;3.55;;;21.80;99.90;;;;;;5032668;28;20411;-51
2022/12/18 01:31:39;;;;;;;7.43;3.65;;;21.80;99.90;;;;;;5032534;28;20092;-52
2022/12/18 01:34:05;;;;;;;8.20;3.28;;;21.80;99.90;;;;;;5032990;28;20379;-52
2022/12/18 01:36:33;;;;;;;7.03;3.53;;;21.80;99.90;;;;;;5014858;28;20029;-51
2022/12/18 01:39:01;;;;;;;9.25;3.42;;;21.80;99.90;;;;;;5032560;28;20511;-55
2022/12/18 01:42:01;;;;;;;;;;;21.70;99.90;;;;;;5033028;28;20030;-59
2022/12/18 01:44:54;;;;;;;11.02;4.05;;;21.80;99.90;;;;;;5032584;28;19909;-54
2022/12/18 01:47:32;;;;;;;9.20;4.20;;;21.70;99.90;;;;;;5032285;28;20071;-55
2022/12/18 01:50:00;;;;;;;12.18;4.70;;;21.70;99.90;;;;;;5032570;28;20457;-55
2022/12/18 01:52:29;;;;;;;9.70;4.72;;;21.70;99.90;;;;;;5032182;28;20581;-54
2022/12/18 01:54:55;;;;;;;7.28;4.40;;;21.70;99.90;;;;;;5032108;28;20081;-56
2022/12/18 01:57:23;;;;;;;8.88;4.25;;;21.60;99.90;;;;;;5032283;28;20439;-57
2022/12/18 01:59:53;;;;;;;13.40;4.60;;;21.60;99.90;;;;;;5051334;22;20205;-51
2022/12/18 02:02:20;;;;;;;7.65;3.85;;;21.60;99.90;;;;;;5012439;28;20038;-49
2022/12/18 02:04:46;;;;;;;10.20;4.15;;;21.60;99.90;;;;;;5012645;28;20499;-50
2022/12/18 02:07:36;;;;;;;9.10;5.18;;;21.60;99.90;;;;;;5012481;28;20034;-49
2022/12/18 02:10:05;;;;;;;9.93;4.45;;;21.60;99.90;;;;;;5012437;28;20049;-49
2022/12/18 02:12:55;;;;;;;11.07;5.28;;;21.60;99.90;;;;;;5012314;28;20018;-50
2022/12/18 02:15:37;;;;;;;11.48;4.72;;;21.60;99.90;;;;;;4992682;28;20031;-48
2022/12/18 02:18:16;;;;;;;7.63;4.75;;;21.60;99.90;;;;;;4992069;28;20090;-48
2022/12/18 02:20:47;;;;;;;13.75;4.78;;;21.50;99.90;;;;;;4992451;28;20098;-49
2022/12/18 02:23:19;;;;;;;9.32;5.57;;;21.50;99.90;;;;;;4992104;28;20508;-49
2022/12/18 02:26:00;;;;;;;7.47;4.75;;;21.50;99.90;;;;;;4991025;28;20069;-49
2022/12/18 02:28:31;;;;;;;9.55;4.65;;;21.50;99.90;;;;;;4992030;28;20081;-49
2022/12/18 02:31:01;;;;;;;7.78;5.07;;;21.50;99.90;;;;;;5001093;28;20069;-49
2022/12/18 02:33:30;;;;;;;10.52;5.10;;;21.50;99.90;;;;;;5012001;28;20069;-48
2022/12/18 02:35:58;;;;;;;10.05;5.28;;;21.50;99.90;;;;;;5012143;28;20399;-48
2022/12/18 02:38:24;;;;;;;;;;;21.50;99.90;;;;;;5016655;28;20030;-48
2022/12/18 02:40:53;;;;;;;12.57;6.22;;;21.50;99.90;;;;;;5032152;28;19905;-51
2022/12/18 02:43:19;;;;;;;7.95;4.97;;;21.40;99.90;;;;;;5018827;28;20042;-51
2022/12/18 02:45:52;;;;;;;9.85;5.82;;;21.40;99.90;;;;;;5018491;28;20104;-50
2022/12/18 02:48:24;;;;;;;10.65;5.97;;;21.40;99.90;;;;;;5018631;28;20075;-50
2022/12/18 02:51:04;;;;;;;10.10;5.35;;;21.40;99.90;;;;;;5018639;28;20087;-49
2022/12/18 02:53:40;;;;;;;11.13;6.13;;;21.30;99.90;;;;;;5000316;28;20029;-49
2022/12/18 02:56:11;;;;;;;9.57;5.97;;;21.30;99.90;;;;;;5018583;28;20039;-50
2022/12/18 02:58:56;;;;;;;10.80;6.22;;;21.30;99.90;;;;;;5018287;28;20117;-49
2022/12/18 03:01:30;;;;;;;10.80;5.60;;;21.30;99.90;;;;;;5018593;28;20041;-49
2022/12/18 03:04:22;;;;;;;11.65;7.15;;;21.30;99.90;;;;;;5018226;28;20029;-49
2022/12/18 03:06:55;;;;;;;16.30;6.47;;;21.30;99.90;;;;;;5011621;28;20053;-49
2022/12/18 03:09:35;;;;;;;12.68;6.15;;;21.20;99.90;;;;;;5018027;28;20025;-50
2022/12/18 03:12:23;;;;;;;12.75;5.50;;;21.20;99.90;;;;;;5018346;28;20025;-49
2022/12/18 03:15:02;;;;;;;10.20;5.57;;;21.20;99.90;;;;;;5018156;28;20060;-49
2022/12/18 03:17:30;;;;;;;13.30;5.97;;;21.30;99.90;;;;;;5018458;28;20384;-49
2022/12/18 03:20:02;;;;;;;10.52;6.35;;;21.30;99.90;;;;;;5000579;28;20356;-49
2022/12/18 03:22:32;;;;;;;11.18;5.85;;;21.30;99.90;;;;;;5017900;28;20014;-48
2022/12/18 03:25:00;;;;;;;11.07;5.68;;;21.20;99.90;;;;;;5017896;28;20024;-50
2022/12/18 03:27:30;;;;;;;8.07;5.38;;;21.20;99.90;;;;;;5018271;28;20022;-48
2022/12/18 03:30:08;;;;;;;10.52;6.30;;;21.20;99.90;;;;;;5017885;28;20029;-48
2022/12/18 03:32:48;;;;;;;10.43;6.28;;;21.20;99.90;;;;;;5009704;28;20061;-48
2022/12/18 03:35:20;;;;;;;8.85;5.93;;;21.10;99.90;;;;;;5018136;28;20417;-48
2022/12/18 03:37:45;;;;;;;10.43;5.97;;;21.20;99.90;;;;;;5017914;28;20030;-48
2022/12/18 03:40:11;;;;;;;10.80;5.70;;;21.20;99.90;;;;;;5018365;28;20353;-49
2022/12/18 03:43:00;;;;;;;8.75;5.30;;;21.10;99.90;;;;;;5018019;28;20030;-49
2022/12/18 03:45:37;;;;;;;13.75;5.70;;;21.10;99.90;;;;;;5028259;28;20541;-49
2022/12/18 03:48:18;;;;;;;12.05;6.05;;;21.10;99.90;;;;;;5020072;28;20479;-49
2022/12/18 03:50:57;;;;;;;10.30;5.20;;;21.10;99.90;;;;;;5014301;28;20030;-48
2022/12/18 03:53:26;;;;;;;9.50;5.85;;;21.10;99.90;;;;;;5003173;28;20599;-48
2022/12/18 03:55:52;;;;;;;9.38;5.63;;;21.10;99.90;;;;;;5013867;28;20049;-48
2022/12/18 03:58:24;;;;;;;8.57;5.13;;;21.10;99.90;;;;;;5013122;28;20018;-48
2022/12/18 04:00:53;;;;;;;8.52;4.80;;;21.10;99.90;;;;;;4995978;28;20042;-49
2022/12/18 04:03:21;;;;;;;9.15;5.55;;;21.10;99.90;;;;;;5012725;28;20101;-49
2022/12/18 04:05:50;;;;;;;8.23;4.72;;;21.10;99.90;;;;;;5012890;28;20021;-49
2022/12/18 04:08:16;;;;;;;12.50;5.60;;;21.00;99.90;;;;;;5012728;28;20029;-49
2022/12/18 04:10:42;;;;;;;11.45;5.70;;;21.00;99.90;;;;;;5012535;28;20029;-49
2022/12/18 04:13:09;;;;;;;8.68;4.93;;;21.00;99.90;;;;;;5011358;28;20030;-49
2022/12/18 04:15:36;;;;;;;8.60;4.60;;;20.90;99.90;;;;;;5012305;28;20026;-49
2022/12/18 04:18:02;;;;;;;7.57;4.97;;;20.90;99.90;;;;;;5013976;28;20018;-49
2022/12/18 04:20:28;;;;;;;10.02;5.30;;;20.90;99.90;;;;;;5014438;28;20053;-49
2022/12/18 04:22:53;;;;;;;9.93;5.80;;;20.80;99.90;;;;;;5014481;28;20030;-49
2022/12/18 04:25:19;;;;;;;9.38;4.85;;;20.80;99.90;;;;;;5013602;28;20026;-49
2022/12/18 04:27:45;;;;;;;8.13;4.57;;;20.80;99.90;;;;;;5013529;28;20026;-49
2022/12/18 04:30:11;;;;;;;10.35;4.93;;;20.80;99.90;;;;;;5014058;28;20519;-49
2022/12/18 04:32:37;;;;;;;8.75;5.28;;;20.70;99.90;;;;;;5014198;28;20411;-49
2022/12/18 04:35:04;;;;;;;8.02;4.55;;;20.70;99.90;;;;;;5014170;28;20099;-49
2022/12/18 04:37:30;;;;;;;9.40;5.47;;;20.70;99.90;;;;;;5014299;28;20361;-48
2022/12/18 04:39:55;;;;;;;9.20;5.32;;;20.70;99.90;;;;;;5014186;28;20299;-48
2022/12/18 04:42:21;;;;;;;7.25;4.70;;;20.70;99.90;;;;;;5014288;28;20076;-49
2022/12/18 04:44:47;;;;;;;8.48;4.72;;;20.70;99.90;;;;;;5014310;28;20052;-49
2022/12/18 04:47:13;;;;;;;8.43;4.95;;;20.60;99.90;;;;;;5013773;28;20392;-48
2022/12/18 04:49:38;;;;;;;7.90;4.38;;;20.60;99.90;;;;;;5013956;28;20041;-47
2022/12/18 04:52:04;;;;;;;8.93;5.10;;;20.60;99.90;;;;;;5012632;28;20033;-48
2022/12/18 04:54:30;;;;;;;8.68;4.43;;;20.60;99.90;;;;;;5013762;28;20053;-47
2022/12/18 04:56:56;;;;;;;7.30;4.50;;;20.60;99.90;;;;;;5013652;28;20022;-48
2022/12/18 04:59:21;;;;;;;7.22;3.90;;;20.60;99.90;;;;;;5014346;28;20061;-47
2022/12/18 05:01:47;;;;;;;7.68;4.80;;;20.60;99.90;;;;;;5014035;28;20046;-50
2022/12/18 05:04:13;;;;;;;6.70;4.63;;;20.60;99.90;;;;;;5012545;28;20033;-49
2022/12/18 05:06:39;;;;;;;7.05;4.93;;;20.50;99.90;;;;;;5013572;28;20029;-49
2022/12/18 05:09:04;;;;;;;8.88;4.25;;;20.50;99.90;;;;;;5013801;28;20018;-50
2022/12/18 05:11:30;;;;;;;8.50;4.32;;;20.50;99.90;;;;;;5013911;28;20026;-49
2022/12/18 05:13:56;;;;;;;7.32;4.28;;;20.50;99.90;;;;;;5013530;28;20396;-49
2022/12/18 05:16:22;;;;;;;8.05;4.28;;;20.50;99.90;;;;;;5013726;28;20026;-49
2022/12/18 05:18:47;;;;;;;6.43;3.88;;;20.50;99.90;;;;;;5012413;28;20099;-49
2022/12/18 05:21:13;;;;;;;8.60;4.40;;;20.50;99.90;;;;;;5013422;28;20030;-49
2022/12/18 05:23:39;;;;;;;6.85;4.03;;;20.40;99.90;;;;;;5013450;28;20064;-49
2022/12/18 05:26:06;;;;;;;6.63;4.03;;;20.40;99.90;;;;;;5013301;28;20034;-50
2022/12/18 05:28:33;;;;;;;10.13;4.30;;;20.40;99.90;;;;;;5013435;28;20025;-49
2022/12/18 05:31:00;;;;;;;7.43;4.20;;;20.40;99.90;;;;;;5013233;28;20026;-49
2022/12/18 05:33:30;;;;;;;6.32;4.15;;;20.40;99.90;;;;;;4995631;28;20033;-49
2022/12/18 05:36:15;;;;;;;10.50;3.88;;;20.40;99.90;;;;;;5011845;28;20033;-48
2022/12/18 05:38:41;;;;;;;6.30;3.72;;;20.40;99.90;;;;;;5011557;28;20364;-49
2022/12/18 05:41:08;;;;;;;8.18;3.90;;;20.30;99.90;;;;;;5013187;28;20032;-49
2022/12/18 05:43:36;;;;;;;6.97;3.75;;;20.40;99.90;;;;;;4995541;28;20022;-49
2022/12/18 05:46:12;;;;;;;8.02;4.15;;;20.30;99.90;;;;;;5013117;28;20017;-49
2022/12/18 05:48:38;;;;;;;7.33;3.80;;;20.30;99.90;;;;;;5013227;28;20030;-49
2022/12/18 05:51:10;;;;;;;4.63;3.40;;;20.30;99.90;;;;;;5012987;28;20287;-49
2022/12/18 05:53:37;;;;;;;7.70;3.83;;;20.30;99.90;;;;;;5011681;28;20034;-49
2022/12/18 05:56:05;;;;;;;6.47;3.67;;;20.30;99.90;;;;;;4995191;28;20021;-49
2022/12/18 05:58:31;;;;;;;6.25;3.78;;;20.20;99.90;;;;;;5012850;28;20029;-49
2022/12/18 06:00:57;;;;;;;7.63;3.60;;;20.30;99.90;;;;;;5012574;28;20458;-49
2022/12/18 06:03:23;;;;;;;5.88;3.83;;;20.20;99.90;;;;;;5013138;28;20026;-49
2022/12/18 06:05:49;;;;;;;7.25;3.83;;;20.20;99.90;;;;;;5012697;28;20022;-49
2022/12/18 06:08:15;;;;;;;7.18;4.13;;;20.20;99.90;;;;;;5012741;28;20065;-49
2022/12/18 06:10:41;;;;;;;8.48;3.63;;;20.20;99.90;;;;;;5012680;28;20029;-49
2022/12/18 06:13:08;;;;;;;7.97;3.83;;;20.20;99.90;;;;;;5011991;28;20025;-49
2022/12/18 06:15:37;;;;;;;6.63;3.90;;;20.20;99.90;;;;;;5012280;28;20037;-49
2022/12/18 06:18:03;;;;;;;5.20;3.30;;;20.20;99.90;;;;;;5012546;28;20358;-49
2022/12/18 06:20:28;;;;;;;6.57;3.35;;;20.20;99.90;;;;;;5011318;28;20026;-49
2022/12/18 06:22:54;;;;;;;5.95;3.53;;;20.20;99.90;;;;;;5012822;28;20014;-49
2022/12/18 06:25:20;;;;;;;4.15;2.75;;;20.20;99.90;;;;;;5012489;28;20713;-49
2022/12/18 06:27:47;;;;;;;4.68;2.85;;;20.10;99.90;;;;;;5012491;28;20598;-49
2022/12/18 06:30:14;;;;;;;6.90;3.25;;;20.20;99.90;;;;;;5012300;28;20025;-50
2022/12/18 06:32:40;;;;;;;5.45;3.28;;;20.20;99.90;;;;;;5012418;28;20036;-49
2022/12/18 06:35:06;;;;;;;5.72;3.35;;;20.10;99.90;;;;;;5012239;28;20041;-49
2022/12/18 06:37:32;;;;;;;4.22;2.72;;;20.10;99.90;;;;;;5012708;28;20167;-49
2022/12/18 06:39:58;;;;;;;6.10;3.35;;;20.10;99.90;;;;;;5012428;28;20523;-50
2022/12/18 06:42:24;;;;;;;5.38;3.17;;;20.10;99.90;;;;;;5012374;28;20022;-50
2022/12/18 06:44:50;;;;;;;4.85;3.03;;;20.10;99.90;;;;;;5012199;28;20487;-50
2022/12/18 06:47:16;;;;;;;5.07;3.15;;;20.10;99.90;;;;;;5012144;28;20026;-49
2022/12/18 06:49:41;;;;;;;4.53;2.80;;;20.10;99.90;;;;;;5010845;28;20488;-49
2022/12/18 06:52:07;;;;;;;6.60;3.17;;;20.10;99.90;;;;;;5010842;28;20113;-49
2022/12/18 06:54:33;;;;;;;4.10;2.75;;;20.10;99.90;;;;;;5011985;28;20034;-49
2022/12/18 06:56:59;;;;;;;4.20;3.00;;;20.10;99.90;;;;;;5012302;28;20028;-49
2022/12/18 06:59:24;;;;;;;4.55;3.33;;;20.00;99.90;;;;;;5012275;28;20049;-49
2022/12/18 07:01:50;;;;;;;3.45;2.53;;;20.00;99.90;;;;;;5012043;28;20396;-49
2022/12/18 07:04:16;;;;;;;5.35;3.03;;;20.00;99.90;;;;;;5012030;28;20033;-49
2022/12/18 07:06:42;;;;;;;4.40;2.92;;;20.00;99.90;;;;;;5011965;28;20026;-49
2022/12/18 07:09:07;;;;;;;5.63;3.15;;;20.00;99.90;;;;;;5011972;28;20030;-49
2022/12/18 07:11:33;;;;;;;6.30;2.70;;;20.00;99.90;;;;;;5012014;28;20113;-49
2022/12/18 07:13:59;;;;;;;5.88;2.97;;;20.00;99.90;;;;;;5011972;28;20032;-49
2022/12/18 07:16:25;;;;;;;4.82;2.85;;;20.00;99.90;;;;;;5012174;28;20026;-49
2022/12/18 07:18:53;;;;;;;4.90;2.80;;;20.00;99.90;;;;;;5011919;28;20018;-49
2022/12/18 07:21:20;;;;;;;6.65;3.45;;;20.00;99.90;;;;;;5012017;28;20033;-49
2022/12/18 07:23:47;;;;;;;9.07;3.53;;;20.00;99.90;;;;;;5011846;28;20025;-49
2022/12/18 07:26:15;;;;;;;5.65;3.33;;;20.00;99.90;;;;;;5015080;28;20022;-49
2022/12/18 07:28:41;;;;;;;5.32;3.60;;;20.00;99.90;;;;;;5015585;28;20472;-49
2022/12/18 07:31:12;;;;;;;6.63;3.80;;;20.00;99.90;;;;;;5015596;28;20383;-50
2022/12/18 07:33:38;;;;;;;8.38;3.45;;;20.00;99.90;;;;;;5015540;28;20053;-49
2022/12/18 07:36:06;;;;;;;5.82;3.97;;;19.90;99.90;;;;;;5015480;28;20026;-49
2022/12/18 07:38:33;;;;;;;6.75;3.95;;;19.90;99.90;;;;;;5015510;28;20036;-49
2022/12/18 07:41:03;;;;;;;4.93;3.30;;;19.90;99.90;;;;;;5014205;28;20026;-49
2022/12/18 07:43:29;;;;;;;7.28;3.70;;;20.00;99.90;;;;;;5015629;28;20433;-49
2022/12/18 07:45:55;;;;;;;7.88;4.05;;;19.90;99.90;;;;;;5015351;28;20108;-49
2022/12/18 07:48:21;;;;;;;7.78;4.63;;;19.90;99.90;;;;;;4997680;28;20115;-49
2022/12/18 07:50:47;;;;;;;7.43;4.53;;;20.00;99.90;;;;;;5015184;28;20101;-49
2022/12/18 07:53:14;;;;;;;7.13;4.55;;;20.00;99.90;;;;;;5015167;28;20112;-49
2022/12/18 07:55:41;;;;;;;5.68;3.83;;;20.00;99.90;;;;;;5014943;28;20373;-49
2022/12/18 07:58:07;;;;;;;9.57;4.95;;;20.00;99.90;;;;;;5014929;28;20018;-49
2022/12/18 08:00:33;;;;;;;9.63;5.25;;;20.00;99.90;;;;;;5014842;28;20057;-49
2022/12/18 08:02:59;;;;;;;9.27;5.05;;;20.00;99.90;;;;;;5015146;28;20102;-49
2022/12/18 08:05:25;;;;;;;9.02;5.10;;;20.10;99.90;;;;;;5014869;28;20108;-49
2022/12/18 08:07:51;;;;;;;9.68;5.05;;;20.10;99.90;;;;;;4997263;28;20033;-49
2022/12/18 08:10:17;;;;;;;7.95;4.53;;;20.10;99.90;;;;;;5014644;28;20442;-49
2022/12/18 08:12:43;;;;;;;8.90;4.50;;;20.20;99.90;;;;;;5014681;28;20068;-49
2022/12/18 08:15:09;;;;;;;8.63;4.78;;;20.20;99.90;;;;;;5014594;28;20065;-49
2022/12/18 08:17:35;;;;;;;9.52;5.43;;;20.20;99.90;;;;;;4997093;28;20044;-49
2022/12/18 08:20:01;;;;;;;8.43;4.90;;;20.20;99.90;;;;;;5014921;28;20104;-49
2022/12/18 08:22:27;;;;;;;7.13;4.60;;;20.20;99.90;;;;;;5013241;28;20033;-49
2022/12/18 08:24:53;;;;;;;10.70;5.07;;;20.30;99.90;;;;;;5014544;28;20026;-49
2022/12/18 08:27:18;;;;;;;7.47;4.68;;;20.30;99.90;;;;;;5014539;28;20368;-49
2022/12/18 08:29:44;;;;;;;9.02;5.30;;;20.30;99.90;;;;;;5014600;28;20026;-49
2022/12/18 08:32:10;;;;;;;8.48;4.60;;;20.40;99.90;;;;;;5014386;28;20022;-49
2022/12/18 08:34:36;;;;;;;8.48;5.25;;;20.40;99.90;;;;;;5014231;28;20557;-49
2022/12/18 08:37:02;;;;;;;10.05;5.78;;;20.40;99.90;;;;;;4996534;28;20468;-49
2022/12/18 08:39:27;;;;;;;7.97;5.07;;;20.40;99.90;;;;;;5014184;28;20029;-49
2022/12/18 08:44:37;;;;;;;7.60;5.00;;;20.50;99.90;;;;;;5014404;28;20554;-49
2022/12/18 08:47:04;;;;;;;13.77;4.95;;;20.50;99.90;;;;;;5014357;28;20074;-50
2022/12/18 08:49:30;;;;;;;8.60;5.22;;;20.50;99.90;;;;;;5014253;28;20373;-49
2022/12/18 08:51:59;;;;;;;8.48;4.32;;;20.60;99.90;;;;;;4996344;28;20044;-49
2022/12/18 08:54:26;;;;;;;8.10;4.45;;;20.60;99.90;;;;;;5013780;28;20041;-49
2022/12/18 08:56:51;;;;;;;7.57;4.55;;;20.60;99.90;;;;;;5013908;28;20522;-49
2022/12/18 08:59:18;;;;;;;8.25;4.80;;;20.60;99.90;;;;;;5013864;28;20026;-49
2022/12/18 09:01:44;;;;;;;10.95;5.68;;;20.70;99.90;;;;;;5013619;28;20054;-49
2022/12/18 09:04:10;;;;;;;9.73;5.60;;;20.70;99.90;;;;;;5013647;28;20045;-49
2022/12/18 09:06:37;;;;;;;9.50;5.05;;;20.70;99.90;;;;;;4996335;28;20064;-49
2022/12/18 09:09:04;;;;;;;8.55;4.72;;;20.80;99.90;;;;;;5013731;28;20014;-49
2022/12/18 09:11:31;;;;;;;10.32;5.05;;;20.80;99.90;;;;;;5013513;28;20062;-49
2022/12/18 09:13:59;;;;;;;9.10;5.15;;;20.80;99.90;;;;;;4995990;28;20066;-49
2022/12/18 09:16:26;;;;;;;11.02;5.13;;;20.80;99.90;;;;;;5013947;28;20030;-49
2022/12/18 09:18:58;;;;;;;9.23;4.38;;;20.90;99.90;;;;;;5013392;28;20026;-49
2022/12/18 09:21:25;;;;;;;8.85;5.10;;;20.90;99.90;;;;;;4996983;28;20460;-49
2022/12/18 09:23:53;;;;;;;8.53;5.40;;;20.90;99.90;;;;;;5013420;28;20030;-49
2022/12/18 09:26:18;;;;;;;7.15;4.85;;;21.00;99.90;;;;;;5013283;28;20022;-50
2022/12/18 09:28:44;;;;;;;8.20;5.40;;;21.00;99.90;;;;;;4995810;28;20087;-49
2022/12/18 09:31:17;;;;;;;9.02;5.70;;;21.00;99.90;;;;;;5013254;28;20030;-49
2022/12/18 09:33:44;;;;;;;8.02;4.88;;;21.10;99.90;;;;;;5013092;28;20022;-49
2022/12/18 09:36:13;;;;;;;8.93;5.57;;;21.10;99.90;;;;;;5013309;28;20022;-49
2022/12/18 09:38:39;;;;;;;9.10;4.95;;;21.10;99.90;;;;;;5013182;28;20026;-49
2022/12/18 09:41:22;;;;;;;9.88;4.72;;;21.20;99.90;;;;;;5013224;28;20444;-49
2022/12/18 09:43:56;;;;;;;10.70;5.25;;;21.20;99.90;;;;;;5013019;28;20022;-49
2022/12/18 09:46:38;;;;;;;8.18;5.00;;;21.20;99.90;;;;;;5012845;28;20029;-49
2022/12/18 09:49:10;;;;;;;7.80;5.30;;;21.20;99.90;;;;;;4994936;28;20022;-49
2022/12/18 09:52:01;;;;;;;8.50;5.28;;;21.30;99.90;;;;;;5013150;28;20476;-49
2022/12/18 09:54:39;;;;;;;10.68;5.60;;;21.30;99.90;;;;;;5012706;28;20172;-49
2022/12/18 09:57:05;;;;;;;7.85;5.07;;;21.40;99.90;;;;;;4995382;28;20026;-50
2022/12/18 09:59:39;;;;;;;7.85;4.93;;;21.40;99.90;;;;;;5011400;28;20034;-49
2022/12/18 10:02:18;;;;;;;7.72;4.80;;;21.40;99.90;;;;;;5011845;28;20106;-49
2022/12/18 10:04:50;;;;;;;9.52;4.95;;;21.50;99.90;;;;;;5012783;28;20507;-49
2022/12/18 10:07:22;;;;;;;9.77;5.20;;;21.50;99.90;;;;;;4979441;28;20124;-49
2022/12/18 10:10:06;;;;;;;6.63;4.18;;;21.50;99.90;;;;;;5012800;28;20018;-49
2022/12/18 10:12:59;;;;;;;8.00;4.65;;;21.60;99.90;;;;;;5012643;28;20472;-49
2022/12/18 10:15:49;;;;;;;9.00;4.88;;;21.60;99.90;;;;;;5012388;28;20103;-49
2022/12/18 10:18:51;;;;;;;8.82;4.80;;;21.70;99.90;;;;;;5012509;28;20038;-50
2022/12/18 10:21:29;;;;;;;6.90;4.55;;;21.80;99.90;;;;;;5012465;28;20045;-49
2022/12/18 10:24:16;;;;;;;10.48;4.88;;;21.80;99.90;;;;;;5012207;28;20029;-49
2022/12/18 10:26:43;;;;;;;9.35;4.70;;;21.80;99.90;;;;;;5012495;28;20030;-49
2022/12/18 10:29:13;;;;;;;10.45;4.57;;;21.90;99.90;;;;;;5012651;28;20033;-49
2022/12/18 10:31:40;;;;;;;8.90;4.95;;;21.90;99.90;;;;;;5012587;28;20026;-49
2022/12/18 10:34:10;;;;;;;8.23;4.30;;;21.90;99.90;;;;;;5012092;28;20065;-49
2022/12/18 10:36:37;;;;;;;10.85;5.05;;;22.00;99.90;;;;;;5012412;28;20383;-49
2022/12/18 10:39:35;;;;;;;9.10;5.38;;;22.00;99.90;;;;;;5012195;28;20026;-49
2022/12/18 10:42:19;;;;;;;11.25;5.18;;;22.10;99.90;;;;;;4979562;28;20073;-49
2022/12/18 10:44:45;;;;;;;8.65;4.63;;;22.10;99.90;;;;;;5012333;28;20116;-49
2022/12/18 10:47:17;;;;;;;8.52;4.32;;;22.20;99.90;;;;;;5012644;28;20396;-49
2022/12/18 10:49:55;;;;;;;7.85;4.80;;;22.20;99.90;;;;;;4994963;28;20029;-49
2022/12/18 10:52:22;;;;;;;10.40;4.32;;;22.30;99.90;;;;;;4994875;28;20019;-49
2022/12/18 10:54:48;;;;;;;;;;;22.30;99.90;;;;;;5012481;28;20030;-49
2022/12/18 10:57:18;;;;;;;15.73;5.32;;;22.30;99.90;;;;;;5012121;28;19913;-50
2022/12/18 10:59:52;;;;;;;7.50;4.88;;;22.40;99.90;;;;;;5014783;28;20030;-49
2022/12/18 11:02:35;;;;;;;7.03;4.30;;;22.40;99.90;;;;;;5016113;28;20026;-48
2022/12/18 11:05:01;;;;;;;9.35;4.88;;;22.40;99.90;;;;;;5016057;28;20168;-49
2022/12/18 11:07:48;;;;;;;9.82;4.55;;;22.50;99.90;;;;;;5015939;28;20026;-49
2022/12/18 11:10:18;;;;;;;;;;;22.50;99.90;;;;;;5016536;28;20017;-49
2022/12/18 11:12:44;;;;;;;11.77;5.30;;;22.60;99.90;;;;;;5015849;28;19973;-49
2022/12/18 11:15:36;;;;;;;8.68;4.47;;;22.60;99.90;;;;;;5004816;28;20373;-49
2022/12/18 11:18:02;;;;;;;11.68;5.20;;;22.60;99.90;;;;;;4994067;28;20451;-49
2022/12/18 11:20:34;;;;;;;6.38;3.10;;;22.70;99.90;;;;;;4996157;28;20106;-49
2022/12/18 11:23:03;;;;;;;5.15;2.53;;;22.70;99.90;;;;;;4996197;28;20030;-49
2022/12/18 11:25:30;;;;;;;7.60;2.42;;;22.70;99.90;;;;;;4996286;28;20077;-49
2022/12/18 11:28:00;;;;;;;8.45;2.55;;;22.60;99.90;;;;;;5005606;28;20053;-50
2022/12/18 11:30:34;;;;;;;6.25;1.80;;;22.60;99.90;;;;;;5012624;28;20036;-50
2022/12/18 11:33:09;;;;;;;10.18;2.42;;;22.60;99.90;;;;;;5015097;28;20044;-49
2022/12/18 11:35:35;;;;;;;12.68;2.78;;;22.60;99.90;;;;;;5014678;28;20042;-49
2022/12/18 11:38:18;;;;;;;7.25;1.65;;;22.50;99.90;;;;;;5014579;28;20010;-51
2022/12/18 11:40:49;;;;;;;8.43;2.03;;;22.50;99.90;;;;;;5014681;28;20040;-49
2022/12/18 11:43:21;;;;;;;8.18;1.90;;;22.50;99.90;;;;;;5006414;28;20050;-49
2022/12/18 11:45:55;;;;;;;6.47;1.83;;;22.50;99.90;;;;;;4995667;28;20026;-49
2022/12/18 11:49:01;;;;;;;5.85;1.50;;;22.40;99.90;;;;;;5014022;28;20014;-50
2022/12/18 11:51:41;;;;;;;8.23;1.70;;;22.40;99.90;;;;;;5002856;28;20455;-50
2022/12/18 11:54:13;;;;;;;5.68;2.05;;;22.50;99.90;;;;;;5020427;28;20835;-50
2022/12/18 11:57:06;;;;;;;8.82;1.92;;;22.50;99.90;;;;;;5012408;28;20022;-50
2022/12/18 11:59:52;;;;;;;6.90;2.50;;;22.60;99.90;;;;;;5014727;28;20092;-50
2022/12/18 12:02:20;;;;;;;5.50;2.47;;;22.60;99.90;;;;;;5014437;28;20038;-50
2022/12/18 12:05:17;;;;;;;16.00;4.00;;;22.70;99.90;;;;;;5014762;28;20029;-50
2022/12/18 12:08:12;;;;;;;14.93;3.22;;;22.80;99.90;;;;;;5013352;28;20376;-50
2022/12/18 12:10:45;;;;;;;12.32;2.63;;;22.80;99.90;;;;;;4960848;28;20047;-50
2022/12/18 12:13:22;;;;;;;8.43;2.30;;;22.90;99.90;;;;;;5014643;28;20357;-50
2022/12/18 12:16:00;;;;;;;;;;;22.90;99.90;;;;;;5013753;28;20049;-49
2022/12/18 12:18:31;;;;;;;11.23;2.65;;;23.00;99.90;;;;;;5014603;28;20040;-50
2022/12/18 12:21:10;;;;;;;8.32;3.15;;;23.00;99.90;;;;;;5014671;28;20030;-50
2022/12/18 12:24:01;;;;;;;13.25;3.28;;;23.10;99.90;;;;;;5013207;28;20030;-51
2022/12/18 12:26:38;;;;;;;7.18;2.88;;;23.10;99.90;;;;;;4996760;28;20083;-51
2022/12/18 12:29:25;;;;;;;9.38;3.50;;;23.10;99.90;;;;;;5014536;28;20025;-52
2022/12/18 12:32:32;;;;;;;8.48;3.03;;;23.20;99.90;;;;;;5014189;28;20030;-51
2022/12/18 12:35:04;;;;;;;9.45;2.70;;;23.30;99.90;;;;;;4990925;28;20125;-51
2022/12/18 12:37:42;;;;;;;7.82;2.75;;;23.30;99.90;;;;;;5014373;28;20030;-51
2022/12/18 12:40:17;;;;;;;15.77;2.97;;;23.40;99.90;;;;;;5014227;28;20109;-51
2022/12/18 12:43:12;;;;;;;7.18;2.83;;;23.40;99.90;;;;;;5014109;28;20036;-50
2022/12/18 12:45:53;;;;;;;6.95;2.67;;;23.40;99.90;;;;;;5014048;28;20022;-51
2022/12/18 12:48:36;;;;;;;8.23;2.70;;;23.50;99.90;;;;;;5013394;28;20026;-51
2022/12/18 12:51:25;;;;;;;7.80;3.17;;;23.50;99.90;;;;;;5012478;28;20032;-51
2022/12/18 12:53:53;;;;;;;7.78;3.30;;;23.60;99.90;;;;;;5013027;28;20496;-51
2022/12/18 12:56:21;;;;;;;5.53;2.78;;;23.60;99.90;;;;;;5015141;28;20028;-52
2022/12/18 12:58:58;;;;;;;5.68;2.63;;;23.60;99.90;;;;;;5013611;28;20540;-51
2022/12/18 13:01:58;;;;;;;10.55;3.10;;;23.70;99.90;;;;;;5013255;28;20145;-52
2022/12/18 13:04:45;;;;;;;9.05;3.00;;;23.70;99.90;;;;;;5026716;28;20460;-51
2022/12/18 13:07:23;;;;;;;;;;;23.80;99.90;;;;;;5013944;28;20113;-52